Terminal Aerodrome Forecast
Issued by NWS

Home | Current Version | Previous Version | Text Only | Print | Product List | Glossary On
Versions: 1 2 3 4 5 6 7 8 9 10 11 12 13 14 15 16 17 18 19 20
000
FTUS42 TJSJ 191100
TAFJSJ
TAF
TJSJ 191126Z 1912/2012 10005KT P6SM VCSH SCT022 BKN050 BKN080
      TEMPO 1912/1914 VRB12G20KT 5SM SHRA SCT022 BKN035
     FM191430 07014KT P6SM FEW025 SCT060 SCT080
     FM191800 08016G22KT P6SM VCSH SCT025 SCT040
     FM192300 08012KT P6SM FEW025 SCT040 BKN070=

USA.gov is the U.S. government's official web portal to all federal, state and local government web resources and services.